sensor_id;sensor_type;location;lat;lon;timestamp;P1;durP1;ratioP1;P2;durP2;ratioP2
27113;SDS011;14648;49.730;8.614;2023-01-31T00:01:25;19.13;;;6.67;;
27113;SDS011;14648;49.730;8.614;2023-01-31T00:03:54;24.67;;;7.37;;
27113;SDS011;14648;49.730;8.614;2023-01-31T00:06:26;17.43;;;6.20;;
27113;SDS011;14648;49.730;8.614;2023-01-31T00:08:56;14.97;;;7.70;;
27113;SDS011;14648;49.730;8.614;2023-01-31T00:11:24;8.60;;;6.70;;
27113;SDS011;14648;49.730;8.614;2023-01-31T00:13:52;13.57;;;7.10;;
27113;SDS011;14648;49.730;8.614;2023-01-31T00:16:18;14.90;;;7.03;;
27113;SDS011;14648;49.730;8.614;2023-01-31T00:18:46;10.17;;;6.83;;
27113;SDS011;14648;49.730;8.614;2023-01-31T00:21:16;11.50;;;6.20;;
27113;SDS011;14648;49.730;8.614;2023-01-31T00:23:45;15.70;;;7.03;;
27113;SDS011;14648;49.730;8.614;2023-01-31T00:26:13;12.03;;;6.47;;
27113;SDS011;14648;49.730;8.614;2023-01-31T00:28:59;15.90;;;6.57;;
27113;SDS011;14648;49.730;8.614;2023-01-31T00:31:27;13.40;;;6.10;;
27113;SDS011;14648;49.730;8.614;2023-01-31T00:33:54;12.77;;;5.43;;
27113;SDS011;14648;49.730;8.614;2023-01-31T00:36:25;10.10;;;5.90;;
27113;SDS011;14648;49.730;8.614;2023-01-31T00:38:55;16.50;;;6.77;;
27113;SDS011;14648;49.730;8.614;2023-01-31T00:41:24;17.10;;;6.47;;
27113;SDS011;14648;49.730;8.614;2023-01-31T00:43:51;15.57;;;5.83;;
27113;SDS011;14648;49.730;8.614;2023-01-31T00:46:17;17.33;;;7.03;;
27113;SDS011;14648;49.730;8.614;2023-01-31T00:48:47;19.47;;;6.27;;
27113;SDS011;14648;49.730;8.614;2023-01-31T00:51:15;17.80;;;7.13;;
27113;SDS011;14648;49.730;8.614;2023-01-31T00:53:41;17.13;;;7.30;;
27113;SDS011;14648;49.730;8.614;2023-01-31T00:56:08;20.20;;;6.50;;
27113;SDS011;14648;49.730;8.614;2023-01-31T00:58:36;10.40;;;6.47;;
27113;SDS011;14648;49.730;8.614;2023-01-31T01:01:10;13.00;;;6.30;;
27113;SDS011;14648;49.730;8.614;2023-01-31T01:03:39;16.70;;;6.27;;
27113;SDS011;14648;49.730;8.614;2023-01-31T01:06:06;20.93;;;6.63;;
27113;SDS011;14648;49.730;8.614;2023-01-31T01:08:33;10.23;;;5.43;;
27113;SDS011;14648;49.730;8.614;2023-01-31T01:11:42;11.80;;;5.20;;
27113;SDS011;14648;49.730;8.614;2023-01-31T01:13:57;15.03;;;7.30;;
27113;SDS011;14648;49.730;8.614;2023-01-31T01:16:30;21.70;;;5.43;;
27113;SDS011;14648;49.730;8.614;2023-01-31T01:19:03;20.73;;;5.10;;
27113;SDS011;14648;49.730;8.614;2023-01-31T01:21:31;15.17;;;5.67;;
27113;SDS011;14648;49.730;8.614;2023-01-31T01:24:03;11.23;;;6.10;;
27113;SDS011;14648;49.730;8.614;2023-01-31T01:26:31;18.80;;;5.87;;
27113;SDS011;14648;49.730;8.614;2023-01-31T01:28:58;13.63;;;5.40;;
27113;SDS011;14648;49.730;8.614;2023-01-31T01:31:26;11.73;;;5.60;;
27113;SDS011;14648;49.730;8.614;2023-01-31T01:33:56;18.70;;;6.27;;
27113;SDS011;14648;49.730;8.614;2023-01-31T01:36:26;16.17;;;6.40;;
27113;SDS011;14648;49.730;8.614;2023-01-31T01:38:53;12.90;;;5.00;;
27113;SDS011;14648;49.730;8.614;2023-01-31T01:41:19;15.07;;;6.23;;
27113;SDS011;14648;49.730;8.614;2023-01-31T01:43:53;8.60;;;4.97;;
27113;SDS011;14648;49.730;8.614;2023-01-31T01:46:40;15.93;;;5.13;;
27113;SDS011;14648;49.730;8.614;2023-01-31T01:49:12;12.70;;;5.67;;
27113;SDS011;14648;49.730;8.614;2023-01-31T01:51:56;9.90;;;5.53;;
27113;SDS011;14648;49.730;8.614;2023-01-31T01:54:25;13.13;;;5.67;;
27113;SDS011;14648;49.730;8.614;2023-01-31T01:57:00;14.00;;;5.27;;
27113;SDS011;14648;49.730;8.614;2023-01-31T01:59:52;17.47;;;6.23;;
27113;SDS011;14648;49.730;8.614;2023-01-31T02:02:44;17.37;;;5.20;;
27113;SDS011;14648;49.730;8.614;2023-01-31T02:05:12;19.23;;;5.60;;
27113;SDS011;14648;49.730;8.614;2023-01-31T02:07:42;18.77;;;6.20;;
27113;SDS011;14648;49.730;8.614;2023-01-31T02:10:19;11.30;;;5.57;;
27113;SDS011;14648;49.730;8.614;2023-01-31T02:12:56;12.87;;;5.30;;
27113;SDS011;14648;49.730;8.614;2023-01-31T02:15:23;39.13;;;11.00;;
27113;SDS011;14648;49.730;8.614;2023-01-31T02:17:49;13.33;;;5.50;;
27113;SDS011;14648;49.730;8.614;2023-01-31T02:20:24;12.70;;;6.10;;
27113;SDS011;14648;49.730;8.614;2023-01-31T02:29:27;8.87;;;4.90;;
27113;SDS011;14648;49.730;8.614;2023-01-31T02:32:18;18.80;;;5.87;;
27113;SDS011;14648;49.730;8.614;2023-01-31T02:41:49;7.00;;;4.67;;
27113;SDS011;14648;49.730;8.614;2023-01-31T02:44:27;7.67;;;3.90;;
27113;SDS011;14648;49.730;8.614;2023-01-31T02:47:29;18.57;;;5.37;;
27113;SDS011;14648;49.730;8.614;2023-01-31T02:50:26;9.90;;;4.50;;
27113;SDS011;14648;49.730;8.614;2023-01-31T02:53:10;11.47;;;5.53;;
27113;SDS011;14648;49.730;8.614;2023-01-31T02:55:47;6.13;;;4.40;;
27113;SDS011;14648;49.730;8.614;2023-01-31T02:58:39;11.40;;;4.87;;
27113;SDS011;14648;49.730;8.614;2023-01-31T03:01:32;17.30;;;5.17;;
27113;SDS011;14648;49.730;8.614;2023-01-31T03:04:22;11.33;;;5.10;;
27113;SDS011;14648;49.730;8.614;2023-01-31T03:06:54;10.40;;;4.10;;
27113;SDS011;14648;49.730;8.614;2023-01-31T03:21:20;11.33;;;5.60;;
27113;SDS011;14648;49.730;8.614;2023-01-31T03:23:55;14.73;;;5.00;;
27113;SDS011;14648;49.730;8.614;2023-01-31T03:26:22;6.83;;;4.40;;
27113;SDS011;14648;49.730;8.614;2023-01-31T03:28:51;10.47;;;4.37;;
27113;SDS011;14648;49.730;8.614;2023-01-31T03:31:41;9.90;;;4.30;;
27113;SDS011;14648;49.730;8.614;2023-01-31T03:34:13;10.83;;;4.47;;
27113;SDS011;14648;49.730;8.614;2023-01-31T03:39:43;23.43;;;4.03;;
27113;SDS011;14648;49.730;8.614;2023-01-31T03:42:27;7.20;;;3.20;;
27113;SDS011;14648;49.730;8.614;2023-01-31T03:45:08;15.97;;;4.27;;
27113;SDS011;14648;49.730;8.614;2023-01-31T03:47:52;17.93;;;4.57;;
27113;SDS011;14648;49.730;8.614;2023-01-31T03:50:22;9.20;;;4.13;;
27113;SDS011;14648;49.730;8.614;2023-01-31T03:55:38;13.53;;;5.53;;
27113;SDS011;14648;49.730;8.614;2023-01-31T03:58:14;14.30;;;4.20;;
27113;SDS011;14648;49.730;8.614;2023-01-31T04:00:44;13.80;;;5.43;;
27113;SDS011;14648;49.730;8.614;2023-01-31T04:06:15;29.70;;;5.00;;
27113;SDS011;14648;49.730;8.614;2023-01-31T04:08:41;13.53;;;4.20;;
27113;SDS011;14648;49.730;8.614;2023-01-31T04:11:08;12.63;;;3.53;;
27113;SDS011;14648;49.730;8.614;2023-01-31T04:13:36;12.13;;;4.37;;
27113;SDS011;14648;49.730;8.614;2023-01-31T04:16:03;16.07;;;4.80;;
27113;SDS011;14648;49.730;8.614;2023-01-31T04:18:29;15.73;;;4.00;;
27113;SDS011;14648;49.730;8.614;2023-01-31T04:20:55;6.67;;;3.80;;
27113;SDS011;14648;49.730;8.614;2023-01-31T04:23:21;24.83;;;5.83;;
27113;SDS011;14648;49.730;8.614;2023-01-31T04:25:48;10.37;;;3.90;;
27113;SDS011;14648;49.730;8.614;2023-01-31T04:28:23;11.23;;;4.17;;
27113;SDS011;14648;49.730;8.614;2023-01-31T04:30:55;24.87;;;4.70;;
27113;SDS011;14648;49.730;8.614;2023-01-31T04:33:21;8.70;;;4.57;;
27113;SDS011;14648;49.730;8.614;2023-01-31T04:35:49;19.10;;;4.77;;
27113;SDS011;14648;49.730;8.614;2023-01-31T04:38:15;10.37;;;4.17;;
27113;SDS011;14648;49.730;8.614;2023-01-31T04:40:42;10.37;;;3.70;;
27113;SDS011;14648;49.730;8.614;2023-01-31T04:43:08;17.67;;;4.23;;
27113;SDS011;14648;49.730;8.614;2023-01-31T04:45:34;14.73;;;3.83;;
27113;SDS011;14648;49.730;8.614;2023-01-31T04:47:59;11.27;;;4.03;;
27113;SDS011;14648;49.730;8.614;2023-01-31T04:50:26;11.00;;;4.00;;
27113;SDS011;14648;49.730;8.614;2023-01-31T04:52:52;15.37;;;4.03;;
27113;SDS011;14648;49.730;8.614;2023-01-31T04:55:18;9.33;;;3.80;;
27113;SDS011;14648;49.730;8.614;2023-01-31T04:57:44;13.30;;;4.63;;
27113;SDS011;14648;49.730;8.614;2023-01-31T05:00:10;11.03;;;4.10;;
27113;SDS011;14648;49.730;8.614;2023-01-31T05:02:36;11.57;;;5.30;;
27113;SDS011;14648;49.730;8.614;2023-01-31T05:05:02;5.57;;;3.13;;
27113;SDS011;14648;49.730;8.614;2023-01-31T05:07:30;16.50;;;4.50;;
27113;SDS011;14648;49.730;8.614;2023-01-31T05:09:55;11.43;;;3.17;;
27113;SDS011;14648;49.730;8.614;2023-01-31T05:12:21;8.53;;;2.97;;
27113;SDS011;14648;49.730;8.614;2023-01-31T05:14:47;11.00;;;2.80;;
27113;SDS011;14648;49.730;8.614;2023-01-31T05:17:12;18.60;;;4.17;;
27113;SDS011;14648;49.730;8.614;2023-01-31T05:19:39;21.23;;;4.90;;
27113;SDS011;14648;49.730;8.614;2023-01-31T05:22:07;14.47;;;4.97;;
27113;SDS011;14648;49.730;8.614;2023-01-31T05:24:35;10.90;;;4.10;;
27113;SDS011;14648;49.730;8.614;2023-01-31T05:27:01;9.10;;;3.57;;
27113;SDS011;14648;49.730;8.614;2023-01-31T05:29:28;6.47;;;4.20;;
27113;SDS011;14648;49.730;8.614;2023-01-31T05:31:59;8.50;;;4.63;;
27113;SDS011;14648;49.730;8.614;2023-01-31T05:34:26;8.40;;;3.77;;
27113;SDS011;14648;49.730;8.614;2023-01-31T05:36:54;9.20;;;5.17;;
27113;SDS011;14648;49.730;8.614;2023-01-31T05:41:50;8.40;;;4.60;;
27113;SDS011;14648;49.730;8.614;2023-01-31T05:44:17;13.80;;;4.90;;
27113;SDS011;14648;49.730;8.614;2023-01-31T05:46:43;18.60;;;5.30;;
27113;SDS011;14648;49.730;8.614;2023-01-31T05:49:10;11.03;;;4.60;;
27113;SDS011;14648;49.730;8.614;2023-01-31T05:51:36;18.03;;;5.33;;
27113;SDS011;14648;49.730;8.614;2023-01-31T05:54:03;15.80;;;5.87;;
27113;SDS011;14648;49.730;8.614;2023-01-31T05:56:29;10.63;;;5.07;;
27113;SDS011;14648;49.730;8.614;2023-01-31T05:58:54;16.03;;;5.20;;
27113;SDS011;14648;49.730;8.614;2023-01-31T06:01:21;12.30;;;5.20;;
27113;SDS011;14648;49.730;8.614;2023-01-31T06:03:49;10.57;;;4.53;;
27113;SDS011;14648;49.730;8.614;2023-01-31T06:06:15;17.77;;;5.33;;
27113;SDS011;14648;49.730;8.614;2023-01-31T06:08:41;10.03;;;6.57;;
27113;SDS011;14648;49.730;8.614;2023-01-31T06:11:07;9.70;;;5.20;;
27113;SDS011;14648;49.730;8.614;2023-01-31T06:13:35;8.87;;;3.60;;
27113;SDS011;14648;49.730;8.614;2023-01-31T06:16:02;9.13;;;5.37;;
27113;SDS011;14648;49.730;8.614;2023-01-31T06:18:29;12.83;;;4.87;;
27113;SDS011;14648;49.730;8.614;2023-01-31T06:20:55;19.83;;;5.77;;
27113;SDS011;14648;49.730;8.614;2023-01-31T06:23:21;10.83;;;5.37;;
27113;SDS011;14648;49.730;8.614;2023-01-31T06:25:50;19.73;;;7.03;;
27113;SDS011;14648;49.730;8.614;2023-01-31T06:28:17;18.47;;;5.60;;
27113;SDS011;14648;49.730;8.614;2023-01-31T06:30:44;19.23;;;6.30;;
27113;SDS011;14648;49.730;8.614;2023-01-31T06:33:11;14.03;;;6.03;;
27113;SDS011;14648;49.730;8.614;2023-01-31T06:35:38;21.70;;;6.80;;
27113;SDS011;14648;49.730;8.614;2023-01-31T06:38:04;19.67;;;6.37;;
27113;SDS011;14648;49.730;8.614;2023-01-31T06:40:30;29.67;;;6.90;;
27113;SDS011;14648;49.730;8.614;2023-01-31T06:42:57;10.10;;;5.60;;
27113;SDS011;14648;49.730;8.614;2023-01-31T06:45:23;22.00;;;6.40;;
27113;SDS011;14648;49.730;8.614;2023-01-31T06:47:49;19.43;;;5.10;;
27113;SDS011;14648;49.730;8.614;2023-01-31T06:50:15;13.00;;;5.97;;
27113;SDS011;14648;49.730;8.614;2023-01-31T06:52:41;13.93;;;6.70;;
27113;SDS011;14648;49.730;8.614;2023-01-31T06:55:07;12.20;;;5.77;;
27113;SDS011;14648;49.730;8.614;2023-01-31T06:57:33;8.57;;;5.60;;
27113;SDS011;14648;49.730;8.614;2023-01-31T06:59:59;11.43;;;6.10;;
27113;SDS011;14648;49.730;8.614;2023-01-31T07:02:25;11.93;;;7.03;;
27113;SDS011;14648;49.730;8.614;2023-01-31T07:04:51;14.53;;;6.57;;
27113;SDS011;14648;49.730;8.614;2023-01-31T07:07:17;19.50;;;7.63;;
27113;SDS011;14648;49.730;8.614;2023-01-31T07:09:43;24.90;;;7.87;;
27113;SDS011;14648;49.730;8.614;2023-01-31T07:12:09;14.83;;;6.50;;
27113;SDS011;14648;49.730;8.614;2023-01-31T07:14:39;16.17;;;7.97;;
27113;SDS011;14648;49.730;8.614;2023-01-31T07:17:06;19.00;;;6.30;;
27113;SDS011;14648;49.730;8.614;2023-01-31T07:19:31;12.47;;;6.20;;
27113;SDS011;14648;49.730;8.614;2023-01-31T07:21:57;17.60;;;7.53;;
27113;SDS011;14648;49.730;8.614;2023-01-31T07:24:23;19.27;;;8.07;;
27113;SDS011;14648;49.730;8.614;2023-01-31T07:26:50;16.40;;;6.67;;
27113;SDS011;14648;49.730;8.614;2023-01-31T07:29:17;22.10;;;8.60;;
27113;SDS011;14648;49.730;8.614;2023-01-31T07:31:45;15.50;;;7.57;;
27113;SDS011;14648;49.730;8.614;2023-01-31T07:34:11;20.70;;;9.13;;
27113;SDS011;14648;49.730;8.614;2023-01-31T07:36:36;19.70;;;7.70;;
27113;SDS011;14648;49.730;8.614;2023-01-31T07:39:02;19.40;;;8.40;;
27113;SDS011;14648;49.730;8.614;2023-01-31T07:41:28;10.30;;;6.67;;
27113;SDS011;14648;49.730;8.614;2023-01-31T07:43:53;14.00;;;5.67;;
27113;SDS011;14648;49.730;8.614;2023-01-31T07:46:19;26.87;;;8.20;;
27113;SDS011;14648;49.730;8.614;2023-01-31T07:48:45;16.13;;;7.50;;
27113;SDS011;14648;49.730;8.614;2023-01-31T07:51:11;15.73;;;7.73;;
27113;SDS011;14648;49.730;8.614;2023-01-31T07:53:37;17.53;;;8.30;;
27113;SDS011;14648;49.730;8.614;2023-01-31T07:56:11;15.50;;;8.20;;
27113;SDS011;14648;49.730;8.614;2023-01-31T08:01:14;16.50;;;8.67;;
27113;SDS011;14648;49.730;8.614;2023-01-31T08:04:08;18.20;;;8.70;;
27113;SDS011;14648;49.730;8.614;2023-01-31T08:06:38;22.93;;;8.37;;
27113;SDS011;14648;49.730;8.614;2023-01-31T08:09:05;33.57;;;10.43;;
27113;SDS011;14648;49.730;8.614;2023-01-31T08:11:32;17.80;;;9.47;;
27113;SDS011;14648;49.730;8.614;2023-01-31T08:13:58;16.63;;;8.67;;
27113;SDS011;14648;49.730;8.614;2023-01-31T08:16:25;17.47;;;8.40;;
27113;SDS011;14648;49.730;8.614;2023-01-31T08:18:51;18.57;;;9.57;;
27113;SDS011;14648;49.730;8.614;2023-01-31T08:21:17;27.60;;;8.37;;
27113;SDS011;14648;49.730;8.614;2023-01-31T08:23:43;19.50;;;7.97;;
27113;SDS011;14648;49.730;8.614;2023-01-31T08:26:11;7.67;;;6.10;;
27113;SDS011;14648;49.730;8.614;2023-01-31T08:28:42;18.37;;;7.70;;
27113;SDS011;14648;49.730;8.614;2023-01-31T08:31:15;14.60;;;7.70;;
27113;SDS011;14648;49.730;8.614;2023-01-31T08:33:47;23.17;;;7.27;;
27113;SDS011;14648;49.730;8.614;2023-01-31T08:36:17;23.93;;;7.90;;
27113;SDS011;14648;49.730;8.614;2023-01-31T08:38:55;18.00;;;7.70;;
27113;SDS011;14648;49.730;8.614;2023-01-31T08:41:21;18.40;;;8.00;;
27113;SDS011;14648;49.730;8.614;2023-01-31T08:43:51;20.87;;;8.63;;
27113;SDS011;14648;49.730;8.614;2023-01-31T08:46:21;14.17;;;8.13;;
27113;SDS011;14648;49.730;8.614;2023-01-31T08:48:49;19.53;;;8.77;;
27113;SDS011;14648;49.730;8.614;2023-01-31T08:51:17;15.50;;;8.17;;
27113;SDS011;14648;49.730;8.614;2023-01-31T08:53:43;16.70;;;8.13;;
27113;SDS011;14648;49.730;8.614;2023-01-31T08:56:09;17.40;;;7.47;;
27113;SDS011;14648;49.730;8.614;2023-01-31T08:58:38;16.13;;;6.80;;
27113;SDS011;14648;49.730;8.614;2023-01-31T09:01:12;13.33;;;7.73;;
27113;SDS011;14648;49.730;8.614;2023-01-31T09:03:43;16.50;;;7.90;;
27113;SDS011;14648;49.730;8.614;2023-01-31T09:06:18;27.00;;;10.03;;
27113;SDS011;14648;49.730;8.614;2023-01-31T09:08:46;25.00;;;9.63;;
27113;SDS011;14648;49.730;8.614;2023-01-31T09:11:13;16.30;;;8.40;;
27113;SDS011;14648;49.730;8.614;2023-01-31T09:13:43;20.87;;;8.07;;
27113;SDS011;14648;49.730;8.614;2023-01-31T09:16:11;17.10;;;7.70;;
27113;SDS011;14648;49.730;8.614;2023-01-31T09:18:38;15.30;;;8.10;;
27113;SDS011;14648;49.730;8.614;2023-01-31T09:21:09;19.50;;;7.30;;
27113;SDS011;14648;49.730;8.614;2023-01-31T09:23:39;23.00;;;8.47;;
27113;SDS011;14648;49.730;8.614;2023-01-31T09:26:06;20.23;;;8.30;;
27113;SDS011;14648;49.730;8.614;2023-01-31T09:28:33;16.50;;;7.43;;
27113;SDS011;14648;49.730;8.614;2023-01-31T09:31:09;24.40;;;9.60;;
27113;SDS011;14648;49.730;8.614;2023-01-31T09:33:37;17.80;;;9.03;;
27113;SDS011;14648;49.730;8.614;2023-01-31T09:36:07;18.23;;;7.67;;
27113;SDS011;14648;49.730;8.614;2023-01-31T09:38:35;16.37;;;8.67;;
27113;SDS011;14648;49.730;8.614;2023-01-31T09:41:03;18.37;;;9.20;;
27113;SDS011;14648;49.730;8.614;2023-01-31T09:43:37;15.00;;;7.80;;
27113;SDS011;14648;49.730;8.614;2023-01-31T09:46:08;22.27;;;8.30;;
27113;SDS011;14648;49.730;8.614;2023-01-31T09:48:41;14.23;;;8.17;;
27113;SDS011;14648;49.730;8.614;2023-01-31T09:51:11;12.70;;;7.10;;
27113;SDS011;14648;49.730;8.614;2023-01-31T09:53:38;18.80;;;7.67;;
27113;SDS011;14648;49.730;8.614;2023-01-31T09:59:06;12.33;;;7.40;;
27113;SDS011;14648;49.730;8.614;2023-01-31T10:01:56;24.30;;;7.30;;
27113;SDS011;14648;49.730;8.614;2023-01-31T10:04:53;17.30;;;6.97;;
27113;SDS011;14648;49.730;8.614;2023-01-31T10:07:59;16.30;;;7.03;;
27113;SDS011;14648;49.730;8.614;2023-01-31T10:11:14;16.50;;;7.43;;
27113;SDS011;14648;49.730;8.614;2023-01-31T10:13:40;22.60;;;6.83;;
27113;SDS011;14648;49.730;8.614;2023-01-31T10:16:21;15.87;;;6.73;;
27113;SDS011;14648;49.730;8.614;2023-01-31T10:19:00;16.93;;;7.27;;
27113;SDS011;14648;49.730;8.614;2023-01-31T10:21:35;15.63;;;7.00;;
27113;SDS011;14648;49.730;8.614;2023-01-31T10:24:12;14.37;;;6.53;;
27113;SDS011;14648;49.730;8.614;2023-01-31T10:26:54;16.03;;;8.47;;
27113;SDS011;14648;49.730;8.614;2023-01-31T10:30:01;14.83;;;7.43;;
27113;SDS011;14648;49.730;8.614;2023-01-31T10:32:33;15.90;;;7.20;;
27113;SDS011;14648;49.730;8.614;2023-01-31T10:35:11;15.23;;;4.77;;
27113;SDS011;14648;49.730;8.614;2023-01-31T10:37:54;16.20;;;6.27;;
27113;SDS011;14648;49.730;8.614;2023-01-31T10:40:38;19.80;;;6.50;;
27113;SDS011;14648;49.730;8.614;2023-01-31T10:43:16;13.67;;;5.90;;
27113;SDS011;14648;49.730;8.614;2023-01-31T10:45:57;16.43;;;6.13;;
27113;SDS011;14648;49.730;8.614;2023-01-31T10:48:24;18.10;;;6.53;;
27113;SDS011;14648;49.730;8.614;2023-01-31T10:56:41;22.87;;;7.50;;
27113;SDS011;14648;49.730;8.614;2023-01-31T10:59:32;20.40;;;6.60;;
27113;SDS011;14648;49.730;8.614;2023-01-31T11:02:10;16.97;;;7.70;;
27113;SDS011;14648;49.730;8.614;2023-01-31T11:04:55;13.00;;;7.07;;
27113;SDS011;14648;49.730;8.614;2023-01-31T11:07:23;13.70;;;6.60;;
27113;SDS011;14648;49.730;8.614;2023-01-31T11:09:55;24.13;;;7.80;;
27113;SDS011;14648;49.730;8.614;2023-01-31T11:12:39;12.60;;;6.63;;
27113;SDS011;14648;49.730;8.614;2023-01-31T11:15:17;12.23;;;7.50;;
27113;SDS011;14648;49.730;8.614;2023-01-31T11:17:45;16.33;;;6.17;;
27113;SDS011;14648;49.730;8.614;2023-01-31T11:20:23;20.80;;;7.97;;
27113;SDS011;14648;49.730;8.614;2023-01-31T11:22:56;22.50;;;7.73;;
27113;SDS011;14648;49.730;8.614;2023-01-31T11:25:28;14.37;;;7.37;;
27113;SDS011;14648;49.730;8.614;2023-01-31T11:27:57;14.83;;;5.93;;
27113;SDS011;14648;49.730;8.614;2023-01-31T11:30:34;17.17;;;6.60;;
27113;SDS011;14648;49.730;8.614;2023-01-31T11:33:03;25.07;;;6.60;;
27113;SDS011;14648;49.730;8.614;2023-01-31T11:35:30;10.83;;;6.13;;
27113;SDS011;14648;49.730;8.614;2023-01-31T11:38:18;16.10;;;6.50;;
27113;SDS011;14648;49.730;8.614;2023-01-31T11:40:47;21.67;;;6.07;;
27113;SDS011;14648;49.730;8.614;2023-01-31T11:45:46;15.27;;;7.10;;
27113;SDS011;14648;49.730;8.614;2023-01-31T11:48:24;16.97;;;5.67;;
27113;SDS011;14648;49.730;8.614;2023-01-31T11:50:59;17.40;;;6.10;;
27113;SDS011;14648;49.730;8.614;2023-01-31T11:53:28;21.47;;;8.43;;
27113;SDS011;14648;49.730;8.614;2023-01-31T11:56:10;17.00;;;6.57;;
27113;SDS011;14648;49.730;8.614;2023-01-31T11:58:39;15.50;;;7.30;;
27113;SDS011;14648;49.730;8.614;2023-01-31T12:01:11;18.00;;;6.27;;
27113;SDS011;14648;49.730;8.614;2023-01-31T12:03:48;12.03;;;6.37;;
27113;SDS011;14648;49.730;8.614;2023-01-31T12:06:29;26.67;;;7.60;;
27113;SDS011;14648;49.730;8.614;2023-01-31T12:08:58;23.93;;;6.77;;
27113;SDS011;14648;49.730;8.614;2023-01-31T12:11:30;17.83;;;5.47;;
27113;SDS011;14648;49.730;8.614;2023-01-31T12:14:15;7.80;;;5.07;;
27113;SDS011;14648;49.730;8.614;2023-01-31T12:16:43;18.63;;;6.00;;
27113;SDS011;14648;49.730;8.614;2023-01-31T12:27:13;17.23;;;5.40;;
27113;SDS011;14648;49.730;8.614;2023-01-31T12:37:59;18.90;;;6.90;;
27113;SDS011;14648;49.730;8.614;2023-01-31T12:41:04;11.13;;;4.23;;
27113;SDS011;14648;49.730;8.614;2023-01-31T12:50:51;11.43;;;4.77;;
27113;SDS011;14648;49.730;8.614;2023-01-31T13:07:39;13.93;;;5.67;;
27113;SDS011;14648;49.730;8.614;2023-01-31T13:13:16;12.60;;;6.00;;
27113;SDS011;14648;49.730;8.614;2023-01-31T13:18:53;12.43;;;5.00;;
27113;SDS011;14648;49.730;8.614;2023-01-31T13:21:25;13.23;;;4.83;;
27113;SDS011;14648;49.730;8.614;2023-01-31T13:23:57;11.70;;;5.50;;
27113;SDS011;14648;49.730;8.614;2023-01-31T13:26:46;11.27;;;5.03;;
27113;SDS011;14648;49.730;8.614;2023-01-31T13:29:28;13.67;;;5.70;;
27113;SDS011;14648;49.730;8.614;2023-01-31T13:32:03;15.50;;;6.70;;
27113;SDS011;14648;49.730;8.614;2023-01-31T13:34:54;13.47;;;6.00;;
27113;SDS011;14648;49.730;8.614;2023-01-31T13:37:28;12.23;;;5.73;;
27113;SDS011;14648;49.730;8.614;2023-01-31T13:40:32;16.27;;;5.77;;
27113;SDS011;14648;49.730;8.614;2023-01-31T13:42:59;21.93;;;5.70;;
27113;SDS011;14648;49.730;8.614;2023-01-31T13:45:37;20.97;;;5.53;;
27113;SDS011;14648;49.730;8.614;2023-01-31T13:50:51;13.37;;;6.23;;
27113;SDS011;14648;49.730;8.614;2023-01-31T13:53:31;17.07;;;6.17;;
27113;SDS011;14648;49.730;8.614;2023-01-31T13:56:14;15.80;;;5.93;;
27113;SDS011;14648;49.730;8.614;2023-01-31T13:58:48;8.10;;;4.90;;
27113;SDS011;14648;49.730;8.614;2023-01-31T14:01:21;10.40;;;6.70;;
27113;SDS011;14648;49.730;8.614;2023-01-31T14:09:30;10.93;;;6.47;;
27113;SDS011;14648;49.730;8.614;2023-01-31T14:12:00;16.80;;;5.57;;
27113;SDS011;14648;49.730;8.614;2023-01-31T14:22:21;16.93;;;7.13;;
27113;SDS011;14648;49.730;8.614;2023-01-31T14:25:28;10.33;;;5.70;;
27113;SDS011;14648;49.730;8.614;2023-01-31T14:28:08;12.63;;;6.23;;
27113;SDS011;14648;49.730;8.614;2023-01-31T14:30:39;10.70;;;6.60;;
27113;SDS011;14648;49.730;8.614;2023-01-31T14:41:27;20.23;;;6.73;;
27113;SDS011;14648;49.730;8.614;2023-01-31T14:50:45;8.27;;;5.93;;
27113;SDS011;14648;49.730;8.614;2023-01-31T15:00:02;16.20;;;7.20;;
27113;SDS011;14648;49.730;8.614;2023-01-31T15:03:38;14.00;;;7.30;;
27113;SDS011;14648;49.730;8.614;2023-01-31T15:08:49;9.30;;;5.47;;
27113;SDS011;14648;49.730;8.614;2023-01-31T15:11:42;15.37;;;7.40;;
27113;SDS011;14648;49.730;8.614;2023-01-31T15:14:33;22.67;;;7.40;;
27113;SDS011;14648;49.730;8.614;2023-01-31T15:17:13;10.17;;;6.77;;
27113;SDS011;14648;49.730;8.614;2023-01-31T15:19:59;15.20;;;5.90;;
27113;SDS011;14648;49.730;8.614;2023-01-31T15:22:40;14.03;;;5.27;;
27113;SDS011;14648;49.730;8.614;2023-01-31T15:25:23;13.80;;;5.50;;
27113;SDS011;14648;49.730;8.614;2023-01-31T15:27:55;13.10;;;6.77;;
27113;SDS011;14648;49.730;8.614;2023-01-31T15:30:22;14.47;;;7.40;;
27113;SDS011;14648;49.730;8.614;2023-01-31T15:33:06;18.00;;;7.40;;
27113;SDS011;14648;49.730;8.614;2023-01-31T15:36:04;13.23;;;6.90;;
27113;SDS011;14648;49.730;8.614;2023-01-31T15:38:54;14.23;;;6.37;;
27113;SDS011;14648;49.730;8.614;2023-01-31T15:41:47;9.60;;;5.27;;
27113;SDS011;14648;49.730;8.614;2023-01-31T15:44:18;18.03;;;6.20;;
27113;SDS011;14648;49.730;8.614;2023-01-31T15:46:49;7.23;;;5.07;;
27113;SDS011;14648;49.730;8.614;2023-01-31T15:49:23;19.77;;;7.40;;
27113;SDS011;14648;49.730;8.614;2023-01-31T15:52:05;11.07;;;6.50;;
27113;SDS011;14648;49.730;8.614;2023-01-31T15:54:53;12.60;;;7.03;;
27113;SDS011;14648;49.730;8.614;2023-01-31T15:57:26;11.97;;;6.67;;
27113;SDS011;14648;49.730;8.614;2023-01-31T16:00:02;13.87;;;8.10;;
27113;SDS011;14648;49.730;8.614;2023-01-31T16:02:30;10.17;;;5.60;;
27113;SDS011;14648;49.730;8.614;2023-01-31T16:05:03;15.77;;;6.83;;
27113;SDS011;14648;49.730;8.614;2023-01-31T16:07:30;14.23;;;6.07;;
27113;SDS011;14648;49.730;8.614;2023-01-31T16:09:57;8.53;;;5.57;;
27113;SDS011;14648;49.730;8.614;2023-01-31T16:12:26;13.33;;;7.80;;
27113;SDS011;14648;49.730;8.614;2023-01-31T16:14:57;19.17;;;6.30;;
27113;SDS011;14648;49.730;8.614;2023-01-31T16:17:29;14.50;;;8.00;;
27113;SDS011;14648;49.730;8.614;2023-01-31T16:22:26;15.43;;;7.10;;
27113;SDS011;14648;49.730;8.614;2023-01-31T16:24:55;11.03;;;5.77;;
27113;SDS011;14648;49.730;8.614;2023-01-31T16:27:30;12.90;;;6.17;;
27113;SDS011;14648;49.730;8.614;2023-01-31T16:30:01;20.70;;;6.90;;
27113;SDS011;14648;49.730;8.614;2023-01-31T16:32:30;12.03;;;6.70;;
27113;SDS011;14648;49.730;8.614;2023-01-31T16:34:59;19.83;;;7.50;;
27113;SDS011;14648;49.730;8.614;2023-01-31T16:37:28;9.77;;;5.97;;
27113;SDS011;14648;49.730;8.614;2023-01-31T16:42:47;10.20;;;6.07;;
27113;SDS011;14648;49.730;8.614;2023-01-31T16:45:30;9.83;;;5.93;;
27113;SDS011;14648;49.730;8.614;2023-01-31T16:48:08;11.43;;;6.30;;
27113;SDS011;14648;49.730;8.614;2023-01-31T16:50:45;9.40;;;6.53;;
27113;SDS011;14648;49.730;8.614;2023-01-31T16:53:23;13.93;;;6.90;;
27113;SDS011;14648;49.730;8.614;2023-01-31T17:01:24;17.70;;;7.03;;
27113;SDS011;14648;49.730;8.614;2023-01-31T17:04:04;10.77;;;6.20;;
27113;SDS011;14648;49.730;8.614;2023-01-31T17:06:33;10.93;;;6.60;;
27113;SDS011;14648;49.730;8.614;2023-01-31T17:09:01;13.23;;;6.40;;
27113;SDS011;14648;49.730;8.614;2023-01-31T17:11:29;15.73;;;7.00;;
27113;SDS011;14648;49.730;8.614;2023-01-31T17:13:56;13.47;;;5.80;;
27113;SDS011;14648;49.730;8.614;2023-01-31T17:16:22;9.73;;;6.20;;
27113;SDS011;14648;49.730;8.614;2023-01-31T17:18:58;9.20;;;6.17;;
27113;SDS011;14648;49.730;8.614;2023-01-31T17:21:25;16.87;;;6.70;;
27113;SDS011;14648;49.730;8.614;2023-01-31T17:23:52;11.43;;;6.10;;
27113;SDS011;14648;49.730;8.614;2023-01-31T17:26:20;10.40;;;6.57;;
27113;SDS011;14648;49.730;8.614;2023-01-31T17:28:47;15.03;;;7.30;;
27113;SDS011;14648;49.730;8.614;2023-01-31T17:31:18;12.67;;;7.07;;
27113;SDS011;14648;49.730;8.614;2023-01-31T17:33:47;8.47;;;6.70;;